Main page
METAR-TAF:

METAR-TAF

Airports :

Tarvisio, Italy

latitude: 46-30N, longitude: 013-35E, elevation: 777 m

Current weather observation

The report was made 4 hours and 33 minutes ago, at 17:55 UTC
Wind 4 kt from the East/Northeast
Temperature 2°C
Humidity 64%
Pressure 1026 hPa
Visibility 10 km or more
Scattered clouds at a height of 3000 ft

METAR: LIVO 171755Z 07004KT 9999 SCT030 02/M04 Q1026 RMK SCT VIS MIN 9999

Time: 23:28 (22:28 UTC)


TAF: missing

Weather observations and forecasts of more than 4000 airports (METAR and TAF reports).

The available stations are represented by yellow and red dots on the map.

Hover mouse over dot to see the name of the station.

Then click to see weather observations and forecasts.

To change the map : click on the green buttons with a black cross to zoom in, on the green button with a dash to zoom out, or on the green arrows for adjacent maps.


METAR-TAF: